createdAt,value
2019-02-22T00:02:22.087Z,45.60
2019-02-22T00:04:51.340Z,45.70
2019-02-22T00:07:20.576Z,45.80
2019-02-22T00:09:49.960Z,45.80
2019-02-22T00:12:19.148Z,45.80
2019-02-22T00:14:48.330Z,45.80
2019-02-22T00:17:17.513Z,45.70
2019-02-22T00:19:48.554Z,45.80
2019-02-22T00:22:17.620Z,45.80
2019-02-22T00:24:46.808Z,45.80
2019-02-22T00:27:16.004Z,45.90
2019-02-22T00:29:45.235Z,46.00
2019-02-22T00:32:14.416Z,46.00
2019-02-22T00:34:43.623Z,46.10
2019-02-22T00:37:12.827Z,46.20
2019-02-22T00:39:42.034Z,46.20
2019-02-22T00:42:11.236Z,46.20
2019-02-22T00:44:40.458Z,46.30
2019-02-22T00:47:09.655Z,46.40
2019-02-22T00:49:38.867Z,46.40
2019-02-22T00:52:08.078Z,46.30
2019-02-22T00:54:37.242Z,46.40
2019-02-22T00:57:06.462Z,46.40
2019-02-22T00:59:35.649Z,46.40
2019-02-22T01:02:05.181Z,46.40
2019-02-22T01:04:34.372Z,46.40
2019-02-22T01:07:03.625Z,46.50
2019-02-22T01:09:32.803Z,46.50
2019-02-22T01:12:02.013Z,46.60
2019-02-22T01:14:31.215Z,46.70
2019-02-22T01:17:00.459Z,46.80
2019-02-22T01:19:29.596Z,46.80
2019-02-22T01:21:58.782Z,46.80
2019-02-22T01:24:27.978Z,46.90
2019-02-22T01:26:57.544Z,46.80
2019-02-22T01:29:26.782Z,46.80
2019-02-22T01:31:55.942Z,46.80
2019-02-22T01:34:25.200Z,46.80
2019-02-22T01:36:54.398Z,46.80
2019-02-22T01:39:23.682Z,46.80
2019-02-22T01:41:52.822Z,46.80
2019-02-22T01:44:22.921Z,46.60
2019-02-22T01:46:52.109Z,46.60
2019-02-22T01:49:21.309Z,46.70
2019-02-22T01:51:50.507Z,46.70
2019-02-22T01:54:19.676Z,46.70
2019-02-22T01:56:48.878Z,46.70
2019-02-22T01:59:18.077Z,46.70
2019-02-22T02:01:47.273Z,46.60
2019-02-22T02:04:16.452Z,46.50
2019-02-22T02:06:45.657Z,46.50
2019-02-22T02:09:14.842Z,46.60
2019-02-22T02:11:44.100Z,46.60
2019-02-22T02:14:13.241Z,46.60
2019-02-22T02:16:42.414Z,46.60
2019-02-22T02:19:11.633Z,46.60
2019-02-22T02:21:40.827Z,46.70
2019-02-22T02:24:10.062Z,46.70
2019-02-22T02:26:39.893Z,46.80
2019-02-22T02:29:09.078Z,46.80
2019-02-22T02:31:38.287Z,46.80
2019-02-22T02:34:07.492Z,46.90
2019-02-22T02:36:36.695Z,46.80
2019-02-22T02:39:06.400Z,46.90
2019-02-22T02:41:35.606Z,46.90
2019-02-22T02:44:04.719Z,46.90
2019-02-22T02:46:33.961Z,47.00
2019-02-22T02:49:03.131Z,47.00
2019-02-22T02:51:32.350Z,47.00
2019-02-22T02:54:01.549Z,47.00
2019-02-22T02:56:30.769Z,47.10
2019-02-22T02:58:59.936Z,47.20
2019-02-22T03:01:29.122Z,47.20
2019-02-22T03:03:58.305Z,47.20
2019-02-22T03:06:35.830Z,47.20
2019-02-22T03:09:05.442Z,47.20
2019-02-22T03:11:34.578Z,47.30
2019-02-22T03:14:03.806Z,47.40
2019-02-22T03:16:32.950Z,47.40
2019-02-22T03:19:02.177Z,47.30
2019-02-22T03:21:31.394Z,47.30
2019-02-22T03:24:00.601Z,47.20
2019-02-22T03:26:29.873Z,47.10
2019-02-22T03:28:59.043Z,47.00
2019-02-22T03:31:28.246Z,47.00
2019-02-22T03:33:57.462Z,47.00
2019-02-22T03:36:26.670Z,47.00
2019-02-22T03:38:55.866Z,47.00
2019-02-22T03:41:32.840Z,47.10
2019-02-22T03:43:55.934Z,47.70
2019-02-22T03:46:25.176Z,47.10
2019-02-22T03:48:54.380Z,47.00
2019-02-22T03:51:23.890Z,47.10
2019-02-22T03:53:58.271Z,47.20
2019-02-22T03:56:27.433Z,47.20
2019-02-22T03:58:56.660Z,47.20
2019-02-22T04:01:25.858Z,47.30
2019-02-22T04:03:55.035Z,47.30
2019-02-22T04:06:24.273Z,48.10
2019-02-22T04:08:53.497Z,47.40
2019-02-22T04:11:22.684Z,47.40
2019-02-22T04:13:51.887Z,47.40
2019-02-22T04:16:21.146Z,48.00
2019-02-22T04:18:50.315Z,47.40
2019-02-22T04:21:19.517Z,47.50
2019-02-22T04:23:48.740Z,47.50
2019-02-22T04:26:18.274Z,47.60
2019-02-22T04:28:47.469Z,47.60
2019-02-22T04:31:16.663Z,47.70
2019-02-22T04:33:45.910Z,47.80
2019-02-22T04:36:15.126Z,47.70
2019-02-22T04:38:44.315Z,47.80
2019-02-22T04:41:13.864Z,47.80
2019-02-22T04:43:43.035Z,47.70
2019-02-22T04:46:12.226Z,47.70
2019-02-22T04:48:41.417Z,47.70
2019-02-22T04:51:10.629Z,47.80
2019-02-22T04:53:39.837Z,47.80
2019-02-22T04:56:09.048Z,47.90
2019-02-22T04:58:38.228Z,47.90
2019-02-22T05:01:07.447Z,48.00
2019-02-22T05:03:43.005Z,48.80
2019-02-22T05:06:14.618Z,48.80
2019-02-22T05:08:44.417Z,48.90
2019-02-22T05:11:13.691Z,48.90
2019-02-22T05:13:44.529Z,48.80
2019-02-22T05:16:13.765Z,52.20
2019-02-22T05:18:42.987Z,51.90
2019-02-22T05:21:12.193Z,51.50
2019-02-22T05:23:45.515Z,51.00
2019-02-22T05:26:14.750Z,50.70
2019-02-22T05:28:43.962Z,50.40
2019-02-22T05:31:13.158Z,50.50
2019-02-22T05:33:46.499Z,50.70
2019-02-22T05:36:15.685Z,50.20
2019-02-22T05:38:44.872Z,50.00
2019-02-22T05:41:14.062Z,50.00
2019-02-22T05:43:43.267Z,49.90
2019-02-22T05:46:12.453Z,49.90
2019-02-22T05:48:42.547Z,50.00
2019-02-22T05:51:11.686Z,50.10
2019-02-22T05:53:40.890Z,50.40
2019-02-22T05:56:10.118Z,50.00
2019-02-22T05:58:39.305Z,50.00
2019-02-22T06:01:08.446Z,50.30
2019-02-22T06:03:37.948Z,50.50
2019-02-22T06:06:07.135Z,50.50
2019-02-22T06:08:36.349Z,50.10
2019-02-22T06:11:05.559Z,50.10
2019-02-22T06:13:34.797Z,50.40
2019-02-22T06:16:04.015Z,50.60
2019-02-22T06:18:33.157Z,50.60
2019-02-22T06:21:02.379Z,50.70
2019-02-22T06:23:31.552Z,50.90
2019-02-22T06:26:00.799Z,50.90
2019-02-22T06:28:29.999Z,51.00
2019-02-22T06:30:59.205Z,51.00
2019-02-22T06:33:28.394Z,51.00
2019-02-22T06:35:57.605Z,51.10
2019-02-22T06:38:26.879Z,51.00
2019-02-22T06:40:56.080Z,51.00
2019-02-22T06:43:25.293Z,50.80
2019-02-22T06:45:54.476Z,49.60
2019-02-22T06:48:23.685Z,49.40
2019-02-22T06:50:52.882Z,49.80
2019-02-22T06:53:22.130Z,50.40
2019-02-22T06:55:51.322Z,49.60
2019-02-22T06:58:20.498Z,49.40
2019-02-22T07:00:49.748Z,49.60
2019-02-22T07:03:18.898Z,49.50
2019-02-22T07:05:48.113Z,49.60
2019-02-22T07:08:17.307Z,49.50
2019-02-22T07:11:04.264Z,49.50
2019-02-22T07:13:33.481Z,49.40
2019-02-22T07:16:02.719Z,49.40
2019-02-22T07:18:31.918Z,49.40
2019-02-22T07:21:01.114Z,49.40
2019-02-22T07:23:30.347Z,49.90
2019-02-22T07:25:59.532Z,50.20
2019-02-22T07:28:28.752Z,50.00
2019-02-22T07:30:57.959Z,49.90
2019-02-22T07:33:27.167Z,49.60
2019-02-22T07:35:56.368Z,50.10
2019-02-22T07:38:25.602Z,49.80
2019-02-22T07:40:54.842Z,49.90
2019-02-22T07:43:24.034Z,50.00
2019-02-22T07:45:53.674Z,49.90
2019-02-22T07:48:22.916Z,50.10
2019-02-22T07:50:57.532Z,50.20
2019-02-22T07:53:22.961Z,50.10
2019-02-22T07:55:52.178Z,50.20
2019-02-22T07:58:21.371Z,50.30
2019-02-22T08:00:50.595Z,50.30
2019-02-22T08:03:19.826Z,50.30
2019-02-22T08:05:49.042Z,50.30
2019-02-22T08:08:18.225Z,49.60
2019-02-22T08:10:47.558Z,49.20
2019-02-22T08:13:19.728Z,49.00
2019-02-22T08:15:47.780Z,49.00
2019-02-22T08:18:17.264Z,49.50
2019-02-22T08:20:46.482Z,49.50
2019-02-22T08:23:15.658Z,49.60
2019-02-22T08:25:44.859Z,49.50
2019-02-22T08:28:14.118Z,49.60
2019-02-22T08:30:43.390Z,49.30
2019-02-22T08:33:12.580Z,49.40
2019-02-22T08:35:41.769Z,49.40
2019-02-22T08:38:11.342Z,49.30
2019-02-22T08:40:40.598Z,49.30
2019-02-22T08:43:09.786Z,49.40
2019-02-22T08:45:38.960Z,49.20
2019-02-22T08:48:08.196Z,49.10
2019-02-22T08:50:37.370Z,49.30
2019-02-22T08:53:06.886Z,49.40
2019-02-22T08:55:36.780Z,49.40
2019-02-22T08:58:06.186Z,49.50
2019-02-22T09:00:35.393Z,49.70
2019-02-22T09:03:04.603Z,49.60
2019-02-22T09:05:33.777Z,49.70
2019-02-22T09:08:03.032Z,49.60
2019-02-22T09:10:32.200Z,49.60
2019-02-22T09:13:01.420Z,49.70
2019-02-22T09:15:30.640Z,49.80
2019-02-22T09:17:59.841Z,49.80
2019-02-22T09:20:29.034Z,49.90
2019-02-22T09:22:58.235Z,49.90
2019-02-22T09:25:27.829Z,49.40
2019-02-22T09:27:57.023Z,49.30
2019-02-22T09:30:26.203Z,49.20
2019-02-22T09:32:55.410Z,48.60
2019-02-22T09:35:24.642Z,48.60
2019-02-22T09:37:53.875Z,48.70
2019-02-22T09:40:23.132Z,49.20
2019-02-22T09:42:52.758Z,48.80
2019-02-22T09:45:24.379Z,49.20
2019-02-22T09:47:52.818Z,49.00
2019-02-22T09:50:22.015Z,49.30
2019-02-22T09:52:51.200Z,49.70
2019-02-22T09:55:20.430Z,49.70
2019-02-22T09:57:49.629Z,50.10
2019-02-22T10:00:18.814Z,51.00
2019-02-22T10:02:48.051Z,51.40
2019-02-22T10:05:17.231Z,51.60
2019-02-22T10:07:46.476Z,52.10
2019-02-22T10:10:15.674Z,52.40
2019-02-22T10:12:44.869Z,52.40
2019-02-22T10:15:14.082Z,52.40
2019-02-22T10:17:43.287Z,52.60
2019-02-22T10:20:12.524Z,52.70
2019-02-22T10:22:41.758Z,52.30
2019-02-22T10:25:10.943Z,52.50
2019-02-22T10:27:40.132Z,52.60
2019-02-22T10:30:09.403Z,52.70
2019-02-22T10:32:38.645Z,53.40
2019-02-22T10:35:08.773Z,51.90
2019-02-22T10:37:37.974Z,51.40
2019-02-22T10:40:07.329Z,51.10
2019-02-22T10:42:36.488Z,50.80
2019-02-22T10:45:06.062Z,50.60
2019-02-22T10:47:35.287Z,51.10
2019-02-22T10:50:04.454Z,50.40
2019-02-22T10:52:33.700Z,50.40
2019-02-22T10:55:02.901Z,50.30
2019-02-22T10:57:32.099Z,50.20
2019-02-22T11:00:01.578Z,50.80
2019-02-22T11:02:31.404Z,50.10
2019-02-22T11:05:00.800Z,50.10
2019-02-22T11:07:29.997Z,50.10
2019-02-22T11:09:59.992Z,50.20
2019-02-22T11:12:29.196Z,49.50
2019-02-22T11:14:58.430Z,50.10
2019-02-22T11:17:27.606Z,50.00
2019-02-22T11:19:56.817Z,50.10
2019-02-22T11:22:26.043Z,50.10
2019-02-22T11:24:55.267Z,50.00
2019-02-22T11:27:24.506Z,50.00
2019-02-22T11:29:53.678Z,50.00
2019-02-22T11:32:22.897Z,49.90
2019-02-22T11:34:52.083Z,49.80
2019-02-22T11:37:21.271Z,49.90
2019-02-22T11:39:50.521Z,49.90
2019-02-22T11:42:19.767Z,50.00
2019-02-22T11:44:48.962Z,49.90
2019-02-22T11:47:18.454Z,49.90
2019-02-22T11:49:47.619Z,49.90
2019-02-22T11:52:16.832Z,49.90
2019-02-22T11:54:46.024Z,49.90
2019-02-22T11:57:15.823Z,49.90
2019-02-22T11:59:45.004Z,49.80
2019-02-22T12:02:14.198Z,49.70
2019-02-22T12:04:43.415Z,49.50
2019-02-22T12:07:12.612Z,49.40
2019-02-22T12:09:51.088Z,49.30
2019-02-22T12:12:20.391Z,49.30
2019-02-22T12:14:52.089Z,49.20
2019-02-22T12:17:20.447Z,49.20
2019-02-22T12:19:49.685Z,49.10
2019-02-22T12:22:18.882Z,49.10
2019-02-22T12:24:48.138Z,49.00
2019-02-22T12:27:17.305Z,49.00
2019-02-22T12:29:46.469Z,48.90
2019-02-22T12:32:15.693Z,48.90
2019-02-22T12:34:44.905Z,48.90
2019-02-22T12:37:14.107Z,48.80
2019-02-22T12:39:43.313Z,48.80
2019-02-22T12:42:12.551Z,48.80
2019-02-22T12:44:41.731Z,48.80
2019-02-22T12:47:10.976Z,48.80
2019-02-22T12:49:40.390Z,48.80
2019-02-22T12:52:10.144Z,48.80
2019-02-22T12:54:39.369Z,48.70
2019-02-22T12:57:08.571Z,48.90
2019-02-22T12:59:37.805Z,48.90
2019-02-22T13:02:06.987Z,48.80
2019-02-22T13:04:36.175Z,48.70
2019-02-22T13:07:05.377Z,48.80
2019-02-22T13:09:36.922Z,48.80
2019-02-22T13:12:13.577Z,48.80
2019-02-22T13:14:36.268Z,48.70
2019-02-22T13:17:05.438Z,48.50
2019-02-22T13:19:34.665Z,48.70
2019-02-22T13:22:03.842Z,48.50
2019-02-22T13:24:33.327Z,48.40
2019-02-22T13:27:02.537Z,48.70
2019-02-22T13:29:31.765Z,48.80
2019-02-22T13:32:00.919Z,48.80
2019-02-22T13:34:30.145Z,48.90
2019-02-22T13:36:59.352Z,48.80
2019-02-22T13:39:28.576Z,48.70
2019-02-22T13:41:57.804Z,48.70
2019-02-22T13:44:27.003Z,48.60
2019-02-22T13:46:56.225Z,48.50
2019-02-22T13:49:25.439Z,48.50
2019-02-22T13:51:54.669Z,48.40
2019-02-22T13:54:23.881Z,48.40
2019-02-22T13:56:53.079Z,48.40
2019-02-22T13:59:22.270Z,48.40
2019-02-22T14:01:51.465Z,48.30
2019-02-22T14:04:20.653Z,48.30
2019-02-22T14:06:49.861Z,48.30
2019-02-22T14:09:19.049Z,48.20
2019-02-22T14:11:48.253Z,48.30
2019-02-22T14:14:17.441Z,48.20
2019-02-22T14:16:46.687Z,48.20
2019-02-22T14:19:15.870Z,48.30
2019-02-22T14:21:45.046Z,48.30
2019-02-22T14:24:14.234Z,48.30
2019-02-22T14:26:43.418Z,48.20
2019-02-22T14:29:12.618Z,48.20
2019-02-22T14:31:41.828Z,48.20
2019-02-22T14:34:11.034Z,48.10
2019-02-22T14:36:40.286Z,48.20
2019-02-22T14:39:09.837Z,48.10
2019-02-22T14:41:39.022Z,48.00
2019-02-22T14:44:08.202Z,48.10
2019-02-22T14:46:37.425Z,48.00
2019-02-22T14:49:06.657Z,48.00
2019-02-22T14:51:36.190Z,47.90
2019-02-22T14:54:05.355Z,48.00
2019-02-22T14:56:34.613Z,48.00
2019-02-22T14:59:03.794Z,48.00
2019-02-22T15:01:35.488Z,47.80
2019-02-22T15:04:03.831Z,47.80
2019-02-22T15:06:32.995Z,48.00
2019-02-22T15:09:02.189Z,48.00
2019-02-22T15:11:31.442Z,48.10
2019-02-22T15:14:00.562Z,48.00
2019-02-22T15:16:48.741Z,47.90
2019-02-22T15:19:18.887Z,47.90
2019-02-22T15:21:48.099Z,47.90
2019-02-22T15:24:18.495Z,47.80
2019-02-22T15:26:47.655Z,47.80
2019-02-22T15:29:16.882Z,47.70
2019-02-22T15:31:46.051Z,47.70
2019-02-22T15:34:15.225Z,47.70
2019-02-22T15:36:44.436Z,48.10
2019-02-22T15:39:13.620Z,48.20
2019-02-22T15:41:42.887Z,48.10
2019-02-22T15:44:12.062Z,48.10
2019-02-22T15:46:41.263Z,48.20
2019-02-22T15:49:10.459Z,48.60
2019-02-22T15:51:39.642Z,48.50
2019-02-22T15:54:08.840Z,48.40
2019-02-22T15:56:38.055Z,48.40
2019-02-22T15:59:07.232Z,48.30
2019-02-22T16:01:36.463Z,48.30
2019-02-22T16:04:17.053Z,48.30
2019-02-22T16:06:46.225Z,48.20
2019-02-22T16:09:15.419Z,48.20
2019-02-22T16:11:44.608Z,48.30
2019-02-22T16:14:13.790Z,48.30
2019-02-22T16:16:43.022Z,47.90
2019-02-22T16:19:12.257Z,48.50
2019-02-22T16:21:41.474Z,48.70
2019-02-22T16:24:10.678Z,48.70
2019-02-22T16:26:39.854Z,48.80
2019-02-22T16:29:09.066Z,48.80
2019-02-22T16:31:38.274Z,48.70
2019-02-22T16:34:07.466Z,48.40
2019-02-22T16:36:37.449Z,48.70
2019-02-22T16:39:07.069Z,48.40
2019-02-22T16:41:36.299Z,48.00
2019-02-22T16:44:05.521Z,47.00
2019-02-22T16:46:35.379Z,47.70
2019-02-22T16:49:04.906Z,46.80
2019-02-22T16:51:34.954Z,47.40
2019-02-22T16:54:04.114Z,47.50
2019-02-22T16:56:33.688Z,47.20
2019-02-22T16:59:02.915Z,47.30
2019-02-22T17:01:32.101Z,47.30
2019-02-22T17:04:01.296Z,47.30
2019-02-22T17:06:30.500Z,47.40
2019-02-22T17:09:00.000Z,47.50
2019-02-22T17:11:29.563Z,47.50
2019-02-22T17:13:58.766Z,47.40
2019-02-22T17:16:28.427Z,47.60
2019-02-22T17:18:57.964Z,47.80
2019-02-22T17:21:27.218Z,47.50
2019-02-22T17:23:56.431Z,47.40
2019-02-22T17:26:25.704Z,47.30
2019-02-22T17:28:54.897Z,47.10
2019-02-22T17:31:24.066Z,47.20
2019-02-22T17:33:53.269Z,47.30
2019-02-22T17:36:26.755Z,47.30
2019-02-22T17:38:53.334Z,47.30
2019-02-22T17:41:22.578Z,47.30
2019-02-22T17:43:51.761Z,47.20
2019-02-22T17:46:21.318Z,47.80
2019-02-22T17:48:50.922Z,47.20
2019-02-22T17:51:20.091Z,47.20
2019-02-22T17:53:49.667Z,47.20
2019-02-22T17:56:18.922Z,47.10
2019-02-22T17:58:48.450Z,47.10
2019-02-22T18:01:23.206Z,47.10
2019-02-22T18:03:52.789Z,47.10
2019-02-22T18:06:25.937Z,47.10
2019-02-22T18:08:54.769Z,47.10
2019-02-22T18:11:23.964Z,47.00
2019-02-22T18:13:53.239Z,47.00
2019-02-22T18:16:22.459Z,47.00
2019-02-22T18:18:51.682Z,46.90
2019-02-22T18:21:20.879Z,46.90
2019-02-22T18:23:50.081Z,46.80
2019-02-22T18:26:19.538Z,46.80
2019-02-22T18:28:48.776Z,46.70
2019-02-22T18:31:17.979Z,46.80
2019-02-22T18:33:47.182Z,46.80
2019-02-22T18:36:16.761Z,46.80
2019-02-22T18:38:45.930Z,46.80
2019-02-22T18:41:15.144Z,46.80
2019-02-22T18:43:44.382Z,46.80
2019-02-22T18:46:13.561Z,47.00
2019-02-22T18:48:42.776Z,47.00
2019-02-22T18:51:11.963Z,47.10
2019-02-22T18:53:41.166Z,46.80
2019-02-22T18:56:10.366Z,46.70
2019-02-22T18:58:39.581Z,46.80
2019-02-22T19:01:08.814Z,47.20
2019-02-22T19:03:38.058Z,47.20
2019-02-22T19:06:07.266Z,45.50
2019-02-22T19:08:36.575Z,48.70
2019-02-22T19:11:05.821Z,48.70
2019-02-22T19:13:35.022Z,48.40
2019-02-22T19:16:04.258Z,48.00
2019-02-22T19:18:33.454Z,47.80
2019-02-22T19:21:03.245Z,47.70
2019-02-22T19:23:32.467Z,47.60
2019-02-22T19:26:01.654Z,47.50
2019-02-22T19:28:30.909Z,47.50
2019-02-22T19:31:00.127Z,47.40
2019-02-22T19:33:31.605Z,47.50
2019-02-22T19:36:03.852Z,47.50
2019-02-22T19:38:33.094Z,47.50
2019-02-22T19:41:02.383Z,47.50
2019-02-22T19:43:31.661Z,47.50
2019-02-22T19:46:00.994Z,47.50
2019-02-22T19:48:30.244Z,47.40
2019-02-22T19:51:00.862Z,47.40
2019-02-22T19:53:33.391Z,47.40
2019-02-22T19:56:02.820Z,47.30
2019-02-22T19:58:32.344Z,47.20
2019-02-22T20:01:01.942Z,47.20
2019-02-22T20:03:31.723Z,47.20
2019-02-22T20:06:01.332Z,47.20
2019-02-22T20:08:30.615Z,47.30
2019-02-22T20:11:00.262Z,47.20
2019-02-22T20:13:29.592Z,47.10
2019-02-22T20:15:59.809Z,46.90
2019-02-22T20:18:29.224Z,46.90
2019-02-22T20:20:58.678Z,46.90
2019-02-22T20:23:28.097Z,46.80
2019-02-22T20:25:57.523Z,46.90
2019-02-22T20:28:26.883Z,46.80
2019-02-22T20:30:56.297Z,46.80
2019-02-22T20:33:25.615Z,46.70
2019-02-22T20:35:55.894Z,46.70
2019-02-22T20:38:25.185Z,46.50
2019-02-22T20:40:55.557Z,46.50
2019-02-22T20:43:25.969Z,46.30
2019-02-22T20:45:58.308Z,46.30
2019-02-22T20:48:28.142Z,46.20
2019-02-22T20:50:57.328Z,46.20
2019-02-22T20:53:27.526Z,46.10
2019-02-22T20:55:56.765Z,46.10
2019-02-22T20:58:27.079Z,46.20
2019-02-22T21:00:56.354Z,46.40
2019-02-22T21:03:25.553Z,46.50
2019-02-22T21:05:55.145Z,46.50
2019-02-22T21:08:24.853Z,46.50
2019-02-22T21:10:54.021Z,46.60
2019-02-22T21:13:23.610Z,46.60
2019-02-22T21:15:52.902Z,46.60
2019-02-22T21:18:22.087Z,46.40
2019-02-22T21:20:51.382Z,46.30
2019-02-22T21:23:20.973Z,46.60
2019-02-22T21:25:50.373Z,46.70
2019-02-22T21:32:01.391Z,46.40
2019-02-22T21:34:30.683Z,46.50
2019-02-22T21:37:00.996Z,46.50
2019-02-22T21:39:30.309Z,46.30
2019-02-22T21:41:59.585Z,46.60
2019-02-22T21:44:30.605Z,46.30
2019-02-22T21:46:59.820Z,46.30
2019-02-22T21:49:29.252Z,46.40
2019-02-22T21:51:58.424Z,46.30
2019-02-22T21:54:28.655Z,46.30
2019-02-22T21:56:58.474Z,46.50
2019-02-22T21:59:28.384Z,46.40
2019-02-22T22:01:58.638Z,46.40
2019-02-22T22:04:27.978Z,46.50
2019-02-22T22:06:57.630Z,46.50
2019-02-22T22:09:27.825Z,46.30
2019-02-22T22:11:57.036Z,46.60
2019-02-22T22:14:26.300Z,46.50
2019-02-22T22:16:55.750Z,46.50
2019-02-22T22:19:25.430Z,46.40
2019-02-22T22:21:55.307Z,46.50
2019-02-22T22:24:25.048Z,46.60
2019-02-22T22:26:54.979Z,46.50
2019-02-22T22:29:24.308Z,45.80
2019-02-22T22:31:53.530Z,45.90
2019-02-22T22:34:25.439Z,45.90
2019-02-22T22:36:54.657Z,46.40
2019-02-22T22:39:23.839Z,46.20
2019-02-22T22:41:56.491Z,46.10
2019-02-22T22:44:25.701Z,46.20
2019-02-22T22:46:57.545Z,46.10
2019-02-22T22:49:26.790Z,46.10
2019-02-22T22:51:55.970Z,46.00
2019-02-22T22:54:28.087Z,45.80
2019-02-22T22:56:57.622Z,45.80
2019-02-22T22:59:26.829Z,45.80
2019-02-22T23:01:56.670Z,45.90
2019-02-22T23:04:25.950Z,45.90
2019-02-22T23:07:11.850Z,45.90
2019-02-22T23:09:42.276Z,45.90
2019-02-22T23:12:13.555Z,46.10
2019-02-22T23:14:42.752Z,46.10
2019-02-22T23:17:12.013Z,46.20
2019-02-22T23:19:41.294Z,46.20
2019-02-22T23:22:12.457Z,46.20
2019-02-22T23:24:43.006Z,46.10
2019-02-22T23:27:16.045Z,46.10
2019-02-22T23:29:46.832Z,46.10
2019-02-22T23:32:16.059Z,46.10
2019-02-22T23:34:45.251Z,46.20
2019-02-22T23:37:14.485Z,46.20
2019-02-22T23:39:43.699Z,46.00
2019-02-22T23:42:12.898Z,46.10
2019-02-22T23:44:42.161Z,46.00
2019-02-22T23:47:11.349Z,46.10
2019-02-22T23:49:40.566Z,45.90
2019-02-22T23:52:09.725Z,45.90
2019-02-22T23:54:38.902Z,46.10
2019-02-22T23:57:08.120Z,45.50
2019-02-22T23:59:37.337Z,46.10
